sensor_id;sensor_type;location;lat;lon;timestamp;P1;durP1;ratioP1;P2;durP2;ratioP2
43363;SDS011;40636;52.424;-1.948;2022-08-03T00:00:22;0.47;;;0.40;;
43363;SDS011;40636;52.424;-1.948;2022-08-03T00:02:52;0.68;;;0.38;;
43363;SDS011;40636;52.424;-1.948;2022-08-03T00:05:19;0.38;;;0.30;;
43363;SDS011;40636;52.424;-1.948;2022-08-03T00:07:47;0.88;;;0.25;;
43363;SDS011;40636;52.424;-1.948;2022-08-03T00:10:15;0.40;;;0.30;;
43363;SDS011;40636;52.424;-1.948;2022-08-03T00:12:42;2.40;;;1.33;;
43363;SDS011;40636;52.424;-1.948;2022-08-03T00:15:09;0.10;;;0.10;;
43363;SDS011;40636;52.424;-1.948;2022-08-03T00:17:42;0.20;;;0.20;;
43363;SDS011;40636;52.424;-1.948;2022-08-03T00:20:21;0.77;;;0.50;;
43363;SDS011;40636;52.424;-1.948;2022-08-03T00:22:49;0.38;;;0.30;;
43363;SDS011;40636;52.424;-1.948;2022-08-03T00:25:16;1.40;;;0.30;;
43363;SDS011;40636;52.424;-1.948;2022-08-03T00:27:43;0.30;;;0.30;;
43363;SDS011;40636;52.424;-1.948;2022-08-03T00:30:13;0.30;;;0.30;;
43363;SDS011;40636;52.424;-1.948;2022-08-03T00:32:42;0.40;;;0.30;;
43363;SDS011;40636;52.424;-1.948;2022-08-03T00:35:10;0.30;;;0.30;;
43363;SDS011;40636;52.424;-1.948;2022-08-03T00:37:59;0.60;;;0.60;;
43363;SDS011;40636;52.424;-1.948;2022-08-03T00:40:26;0.32;;;0.32;;
43363;SDS011;40636;52.424;-1.948;2022-08-03T00:42:58;0.60;;;0.57;;
43363;SDS011;40636;52.424;-1.948;2022-08-03T00:45:28;0.60;;;0.40;;
43363;SDS011;40636;52.424;-1.948;2022-08-03T00:47:57;0.40;;;0.40;;
43363;SDS011;40636;52.424;-1.948;2022-08-03T00:50:26;0.55;;;0.40;;
43363;SDS011;40636;52.424;-1.948;2022-08-03T00:52:56;1.33;;;0.88;;
43363;SDS011;40636;52.424;-1.948;2022-08-03T00:55:24;0.30;;;0.30;;
43363;SDS011;40636;52.424;-1.948;2022-08-03T00:57:52;0.75;;;0.30;;
43363;SDS011;40636;52.424;-1.948;2022-08-03T01:00:19;0.30;;;0.30;;
43363;SDS011;40636;52.424;-1.948;2022-08-03T01:02:48;0.43;;;0.30;;
43363;SDS011;40636;52.424;-1.948;2022-08-03T01:05:15;0.75;;;0.30;;
43363;SDS011;40636;52.424;-1.948;2022-08-03T01:13:30;0.35;;;0.35;;
43363;SDS011;40636;52.424;-1.948;2022-08-03T01:21:53;0.80;;;0.80;;
43363;SDS011;40636;52.424;-1.948;2022-08-03T01:27:18;2.50;;;0.60;;
43363;SDS011;40636;52.424;-1.948;2022-08-03T01:32:33;1.27;;;1.00;;
43363;SDS011;40636;52.424;-1.948;2022-08-03T01:35:27;0.75;;;0.75;;
43363;SDS011;40636;52.424;-1.948;2022-08-03T01:38:09;2.92;;;1.30;;
43363;SDS011;40636;52.424;-1.948;2022-08-03T01:40:41;1.63;;;1.10;;
43363;SDS011;40636;52.424;-1.948;2022-08-03T01:43:11;1.42;;;1.27;;
43363;SDS011;40636;52.424;-1.948;2022-08-03T01:46:03;2.67;;;1.50;;
43363;SDS011;40636;52.424;-1.948;2022-08-03T01:48:32;1.58;;;1.00;;
43363;SDS011;40636;52.424;-1.948;2022-08-03T01:51:01;2.03;;;1.20;;
43363;SDS011;40636;52.424;-1.948;2022-08-03T01:53:30;3.22;;;1.25;;
43363;SDS011;40636;52.424;-1.948;2022-08-03T01:55:59;3.67;;;0.90;;
43363;SDS011;40636;52.424;-1.948;2022-08-03T01:58:29;2.38;;;1.10;;
43363;SDS011;40636;52.424;-1.948;2022-08-03T02:00:57;2.97;;;0.82;;
43363;SDS011;40636;52.424;-1.948;2022-08-03T02:03:27;2.05;;;1.00;;
43363;SDS011;40636;52.424;-1.948;2022-08-03T02:05:57;3.65;;;1.17;;
43363;SDS011;40636;52.424;-1.948;2022-08-03T02:08:45;1.77;;;1.20;;
43363;SDS011;40636;52.424;-1.948;2022-08-03T02:11:14;3.88;;;1.42;;
43363;SDS011;40636;52.424;-1.948;2022-08-03T02:13:42;3.90;;;1.20;;
43363;SDS011;40636;52.424;-1.948;2022-08-03T02:16:11;2.22;;;1.00;;
43363;SDS011;40636;52.424;-1.948;2022-08-03T02:18:39;3.28;;;0.90;;
43363;SDS011;40636;52.424;-1.948;2022-08-03T02:21:08;1.30;;;0.68;;
43363;SDS011;40636;52.424;-1.948;2022-08-03T02:23:57;3.65;;;1.35;;
43363;SDS011;40636;52.424;-1.948;2022-08-03T02:26:25;1.40;;;1.05;;
43363;SDS011;40636;52.424;-1.948;2022-08-03T02:28:55;2.55;;;1.10;;
43363;SDS011;40636;52.424;-1.948;2022-08-03T02:31:27;2.83;;;1.13;;
43363;SDS011;40636;52.424;-1.948;2022-08-03T02:34:00;1.55;;;0.80;;
43363;SDS011;40636;52.424;-1.948;2022-08-03T02:36:30;1.90;;;0.93;;
43363;SDS011;40636;52.424;-1.948;2022-08-03T02:39:02;2.25;;;1.25;;
43363;SDS011;40636;52.424;-1.948;2022-08-03T02:41:31;3.47;;;1.05;;
43363;SDS011;40636;52.424;-1.948;2022-08-03T02:44:06;4.72;;;1.23;;
43363;SDS011;40636;52.424;-1.948;2022-08-03T02:46:36;3.72;;;1.15;;
43363;SDS011;40636;52.424;-1.948;2022-08-03T02:49:06;2.92;;;0.93;;
43363;SDS011;40636;52.424;-1.948;2022-08-03T02:51:54;3.58;;;0.85;;
43363;SDS011;40636;52.424;-1.948;2022-08-03T02:54:23;2.33;;;0.95;;
43363;SDS011;40636;52.424;-1.948;2022-08-03T02:56:53;2.25;;;0.90;;
43363;SDS011;40636;52.424;-1.948;2022-08-03T02:59:23;0.95;;;0.85;;
43363;SDS011;40636;52.424;-1.948;2022-08-03T03:01:52;1.25;;;1.10;;
43363;SDS011;40636;52.424;-1.948;2022-08-03T03:04:20;2.15;;;0.90;;
43363;SDS011;40636;52.424;-1.948;2022-08-03T03:06:52;3.25;;;0.60;;
43363;SDS011;40636;52.424;-1.948;2022-08-03T03:09:20;3.17;;;1.42;;
43363;SDS011;40636;52.424;-1.948;2022-08-03T03:11:48;4.07;;;2.55;;
43363;SDS011;40636;52.424;-1.948;2022-08-03T03:14:16;1.42;;;0.98;;
43363;SDS011;40636;52.424;-1.948;2022-08-03T03:16:59;3.22;;;1.60;;
43363;SDS011;40636;52.424;-1.948;2022-08-03T03:19:27;2.45;;;1.08;;
43363;SDS011;40636;52.424;-1.948;2022-08-03T03:21:58;1.73;;;0.90;;
43363;SDS011;40636;52.424;-1.948;2022-08-03T03:24:27;2.17;;;1.45;;
43363;SDS011;40636;52.424;-1.948;2022-08-03T03:26:55;3.13;;;0.90;;
43363;SDS011;40636;52.424;-1.948;2022-08-03T03:29:23;2.97;;;1.20;;
43363;SDS011;40636;52.424;-1.948;2022-08-03T03:31:50;3.17;;;1.02;;
43363;SDS011;40636;52.424;-1.948;2022-08-03T03:34:17;1.08;;;1.05;;
43363;SDS011;40636;52.424;-1.948;2022-08-03T03:36:44;2.00;;;0.95;;
43363;SDS011;40636;52.424;-1.948;2022-08-03T03:39:11;3.00;;;1.42;;
43363;SDS011;40636;52.424;-1.948;2022-08-03T03:41:41;3.50;;;1.20;;
43363;SDS011;40636;52.424;-1.948;2022-08-03T03:44:09;3.00;;;0.90;;
43363;SDS011;40636;52.424;-1.948;2022-08-03T03:46:36;2.50;;;1.10;;
43363;SDS011;40636;52.424;-1.948;2022-08-03T03:49:04;1.70;;;0.90;;
43363;SDS011;40636;52.424;-1.948;2022-08-03T03:51:32;1.77;;;1.20;;
43363;SDS011;40636;52.424;-1.948;2022-08-03T03:54:00;1.15;;;0.95;;
43363;SDS011;40636;52.424;-1.948;2022-08-03T03:56:29;1.90;;;0.90;;
43363;SDS011;40636;52.424;-1.948;2022-08-03T03:58:56;1.60;;;0.73;;
43363;SDS011;40636;52.424;-1.948;2022-08-03T04:01:23;2.08;;;0.88;;
43363;SDS011;40636;52.424;-1.948;2022-08-03T04:03:51;0.90;;;0.70;;
43363;SDS011;40636;52.424;-1.948;2022-08-03T04:06:17;2.88;;;0.90;;
43363;SDS011;40636;52.424;-1.948;2022-08-03T04:09:03;2.85;;;0.77;;
43363;SDS011;40636;52.424;-1.948;2022-08-03T04:11:52;0.82;;;0.82;;
43363;SDS011;40636;52.424;-1.948;2022-08-03T04:14:24;1.05;;;0.80;;
43363;SDS011;40636;52.424;-1.948;2022-08-03T04:16:58;1.05;;;0.70;;
43363;SDS011;40636;52.424;-1.948;2022-08-03T04:22:10;1.65;;;1.02;;
43363;SDS011;40636;52.424;-1.948;2022-08-03T04:24:43;0.60;;;0.60;;
43363;SDS011;40636;52.424;-1.948;2022-08-03T04:27:15;0.73;;;0.70;;
43363;SDS011;40636;52.424;-1.948;2022-08-03T04:29:47;2.50;;;0.63;;
43363;SDS011;40636;52.424;-1.948;2022-08-03T04:32:16;0.98;;;0.70;;
43363;SDS011;40636;52.424;-1.948;2022-08-03T04:34:45;2.17;;;0.63;;
43363;SDS011;40636;52.424;-1.948;2022-08-03T04:40:14;0.40;;;0.38;;
43363;SDS011;40636;52.424;-1.948;2022-08-03T04:42:55;0.65;;;0.50;;
43363;SDS011;40636;52.424;-1.948;2022-08-03T04:45:24;2.00;;;0.82;;
43363;SDS011;40636;52.424;-1.948;2022-08-03T04:47:52;0.95;;;0.40;;
43363;SDS011;40636;52.424;-1.948;2022-08-03T04:50:20;1.10;;;0.60;;
43363;SDS011;40636;52.424;-1.948;2022-08-03T04:52:48;0.88;;;0.50;;
43363;SDS011;40636;52.424;-1.948;2022-08-03T04:55:25;0.65;;;0.50;;
43363;SDS011;40636;52.424;-1.948;2022-08-03T04:57:54;1.55;;;0.70;;
43363;SDS011;40636;52.424;-1.948;2022-08-03T05:00:21;0.85;;;0.47;;
43363;SDS011;40636;52.424;-1.948;2022-08-03T05:02:48;0.47;;;0.47;;
43363;SDS011;40636;52.424;-1.948;2022-08-03T05:05:15;0.88;;;0.57;;
43363;SDS011;40636;52.424;-1.948;2022-08-03T05:07:44;0.68;;;0.55;;
43363;SDS011;40636;52.424;-1.948;2022-08-03T05:10:12;1.88;;;0.40;;
43363;SDS011;40636;52.424;-1.948;2022-08-03T05:12:42;1.67;;;0.73;;
43363;SDS011;40636;52.424;-1.948;2022-08-03T05:15:10;0.63;;;0.50;;
43363;SDS011;40636;52.424;-1.948;2022-08-03T05:17:37;0.70;;;0.50;;
43363;SDS011;40636;52.424;-1.948;2022-08-03T05:20:04;1.90;;;0.65;;
43363;SDS011;40636;52.424;-1.948;2022-08-03T05:22:32;0.95;;;0.50;;
43363;SDS011;40636;52.424;-1.948;2022-08-03T05:24:59;0.85;;;0.80;;
43363;SDS011;40636;52.424;-1.948;2022-08-03T05:27:27;0.60;;;0.60;;
43363;SDS011;40636;52.424;-1.948;2022-08-03T05:29:54;1.55;;;0.77;;
43363;SDS011;40636;52.424;-1.948;2022-08-03T05:32:43;0.60;;;0.60;;
43363;SDS011;40636;52.424;-1.948;2022-08-03T05:35:10;0.55;;;0.50;;
43363;SDS011;40636;52.424;-1.948;2022-08-03T05:40:24;1.58;;;0.50;;
43363;SDS011;40636;52.424;-1.948;2022-08-03T05:42:52;0.88;;;0.60;;
43363;SDS011;40636;52.424;-1.948;2022-08-03T05:45:19;2.72;;;0.70;;
43363;SDS011;40636;52.424;-1.948;2022-08-03T05:47:50;1.15;;;0.57;;
43363;SDS011;40636;52.424;-1.948;2022-08-03T05:50:18;2.92;;;0.60;;
43363;SDS011;40636;52.424;-1.948;2022-08-03T05:52:45;1.65;;;0.95;;
43363;SDS011;40636;52.424;-1.948;2022-08-03T05:55:13;1.02;;;0.70;;
43363;SDS011;40636;52.424;-1.948;2022-08-03T05:57:40;0.63;;;0.60;;
43363;SDS011;40636;52.424;-1.948;2022-08-03T06:00:10;2.80;;;0.90;;
43363;SDS011;40636;52.424;-1.948;2022-08-03T06:02:41;0.85;;;0.70;;
43363;SDS011;40636;52.424;-1.948;2022-08-03T06:05:08;1.23;;;0.73;;
43363;SDS011;40636;52.424;-1.948;2022-08-03T06:07:35;1.75;;;0.77;;
43363;SDS011;40636;52.424;-1.948;2022-08-03T06:10:03;1.08;;;0.98;;
43363;SDS011;40636;52.424;-1.948;2022-08-03T06:12:50;2.55;;;0.50;;
43363;SDS011;40636;52.424;-1.948;2022-08-03T06:15:18;2.25;;;0.60;;
43363;SDS011;40636;52.424;-1.948;2022-08-03T06:17:48;1.35;;;0.60;;
43363;SDS011;40636;52.424;-1.948;2022-08-03T06:20:17;1.95;;;0.80;;
43363;SDS011;40636;52.424;-1.948;2022-08-03T06:22:45;0.65;;;0.55;;
43363;SDS011;40636;52.424;-1.948;2022-08-03T06:25:25;1.35;;;0.82;;
43363;SDS011;40636;52.424;-1.948;2022-08-03T06:27:53;0.75;;;0.43;;
43363;SDS011;40636;52.424;-1.948;2022-08-03T06:30:19;0.60;;;0.60;;
43363;SDS011;40636;52.424;-1.948;2022-08-03T06:32:47;2.85;;;0.80;;
43363;SDS011;40636;52.424;-1.948;2022-08-03T06:35:17;2.78;;;0.40;;
43363;SDS011;40636;52.424;-1.948;2022-08-03T06:37:45;0.47;;;0.47;;
43363;SDS011;40636;52.424;-1.948;2022-08-03T06:40:14;1.15;;;1.02;;
43363;SDS011;40636;52.424;-1.948;2022-08-03T06:42:49;0.82;;;0.80;;
43363;SDS011;40636;52.424;-1.948;2022-08-03T06:45:16;0.90;;;0.60;;
43363;SDS011;40636;52.424;-1.948;2022-08-03T06:47:43;0.68;;;0.40;;
43363;SDS011;40636;52.424;-1.948;2022-08-03T06:50:10;3.55;;;0.70;;
43363;SDS011;40636;52.424;-1.948;2022-08-03T06:52:43;0.73;;;0.50;;
43363;SDS011;40636;52.424;-1.948;2022-08-03T06:55:10;2.58;;;0.40;;
43363;SDS011;40636;52.424;-1.948;2022-08-03T06:57:37;0.98;;;0.70;;
43363;SDS011;40636;52.424;-1.948;2022-08-03T07:00:04;1.13;;;0.40;;
43363;SDS011;40636;52.424;-1.948;2022-08-03T07:02:38;1.17;;;0.75;;
43363;SDS011;40636;52.424;-1.948;2022-08-03T07:05:08;0.82;;;0.50;;
43363;SDS011;40636;52.424;-1.948;2022-08-03T07:07:35;0.98;;;0.70;;
43363;SDS011;40636;52.424;-1.948;2022-08-03T07:10:03;0.95;;;0.70;;
43363;SDS011;40636;52.424;-1.948;2022-08-03T07:12:32;0.60;;;0.50;;
43363;SDS011;40636;52.424;-1.948;2022-08-03T07:15:01;1.00;;;0.88;;
43363;SDS011;40636;52.424;-1.948;2022-08-03T07:17:29;2.35;;;0.90;;
43363;SDS011;40636;52.424;-1.948;2022-08-03T07:19:57;1.73;;;0.80;;
43363;SDS011;40636;52.424;-1.948;2022-08-03T07:22:25;0.90;;;0.55;;
43363;SDS011;40636;52.424;-1.948;2022-08-03T07:24:52;2.58;;;0.60;;
43363;SDS011;40636;52.424;-1.948;2022-08-03T07:27:19;1.05;;;0.63;;
43363;SDS011;40636;52.424;-1.948;2022-08-03T07:29:46;1.52;;;0.60;;
43363;SDS011;40636;52.424;-1.948;2022-08-03T07:32:13;1.40;;;0.98;;
43363;SDS011;40636;52.424;-1.948;2022-08-03T07:34:40;2.00;;;0.70;;
43363;SDS011;40636;52.424;-1.948;2022-08-03T07:37:08;0.57;;;0.52;;
43363;SDS011;40636;52.424;-1.948;2022-08-03T07:39:35;1.63;;;0.77;;
43363;SDS011;40636;52.424;-1.948;2022-08-03T07:42:02;1.45;;;0.70;;
43363;SDS011;40636;52.424;-1.948;2022-08-03T07:44:31;3.53;;;0.60;;
43363;SDS011;40636;52.424;-1.948;2022-08-03T07:46:58;0.60;;;0.60;;
43363;SDS011;40636;52.424;-1.948;2022-08-03T07:49:28;0.57;;;0.57;;
43363;SDS011;40636;52.424;-1.948;2022-08-03T07:51:56;0.70;;;0.70;;
43363;SDS011;40636;52.424;-1.948;2022-08-03T07:54:42;2.80;;;1.05;;
43363;SDS011;40636;52.424;-1.948;2022-08-03T07:57:09;1.15;;;0.70;;
43363;SDS011;40636;52.424;-1.948;2022-08-03T07:59:36;1.35;;;0.88;;
43363;SDS011;40636;52.424;-1.948;2022-08-03T08:02:25;1.63;;;0.90;;
43363;SDS011;40636;52.424;-1.948;2022-08-03T08:04:52;0.82;;;0.82;;
43363;SDS011;40636;52.424;-1.948;2022-08-03T08:07:19;2.40;;;0.80;;
43363;SDS011;40636;52.424;-1.948;2022-08-03T08:09:46;1.23;;;0.93;;
43363;SDS011;40636;52.424;-1.948;2022-08-03T08:12:13;1.10;;;0.88;;
43363;SDS011;40636;52.424;-1.948;2022-08-03T08:14:41;0.75;;;0.70;;
43363;SDS011;40636;52.424;-1.948;2022-08-03T08:17:11;1.95;;;0.85;;
43363;SDS011;40636;52.424;-1.948;2022-08-03T08:19:38;1.02;;;0.88;;
43363;SDS011;40636;52.424;-1.948;2022-08-03T08:22:16;1.30;;;0.82;;
43363;SDS011;40636;52.424;-1.948;2022-08-03T08:24:50;0.70;;;0.65;;
43363;SDS011;40636;52.424;-1.948;2022-08-03T08:27:17;0.60;;;0.60;;
43363;SDS011;40636;52.424;-1.948;2022-08-03T08:29:44;0.70;;;0.70;;
43363;SDS011;40636;52.424;-1.948;2022-08-03T08:32:20;1.45;;;0.77;;
43363;SDS011;40636;52.424;-1.948;2022-08-03T08:34:47;0.60;;;0.60;;
43363;SDS011;40636;52.424;-1.948;2022-08-03T08:37:14;0.40;;;0.40;;
43363;SDS011;40636;52.424;-1.948;2022-08-03T08:39:41;2.08;;;0.47;;
43363;SDS011;40636;52.424;-1.948;2022-08-03T08:42:09;4.30;;;0.50;;
43363;SDS011;40636;52.424;-1.948;2022-08-03T08:44:36;0.63;;;0.50;;
43363;SDS011;40636;52.424;-1.948;2022-08-03T08:47:03;0.90;;;0.77;;
43363;SDS011;40636;52.424;-1.948;2022-08-03T08:49:31;0.57;;;0.50;;
43363;SDS011;40636;52.424;-1.948;2022-08-03T08:52:02;0.93;;;0.40;;
43363;SDS011;40636;52.424;-1.948;2022-08-03T08:55:01;0.50;;;0.50;;
43363;SDS011;40636;52.424;-1.948;2022-08-03T08:57:32;1.98;;;0.40;;
43363;SDS011;40636;52.424;-1.948;2022-08-03T09:00:10;1.42;;;0.57;;
43363;SDS011;40636;52.424;-1.948;2022-08-03T09:02:41;0.55;;;0.55;;
43363;SDS011;40636;52.424;-1.948;2022-08-03T09:05:12;0.20;;;0.20;;
43363;SDS011;40636;52.424;-1.948;2022-08-03T09:07:41;0.57;;;0.40;;
43363;SDS011;40636;52.424;-1.948;2022-08-03T09:10:09;1.23;;;0.38;;
43363;SDS011;40636;52.424;-1.948;2022-08-03T09:12:43;0.25;;;0.25;;
43363;SDS011;40636;52.424;-1.948;2022-08-03T09:15:18;3.80;;;1.98;;
43363;SDS011;40636;52.424;-1.948;2022-08-03T09:17:47;0.85;;;0.47;;
43363;SDS011;40636;52.424;-1.948;2022-08-03T09:20:16;0.40;;;0.40;;
43363;SDS011;40636;52.424;-1.948;2022-08-03T09:22:57;0.43;;;0.43;;
43363;SDS011;40636;52.424;-1.948;2022-08-03T09:25:27;0.30;;;0.30;;
43363;SDS011;40636;52.424;-1.948;2022-08-03T09:28:06;0.75;;;0.47;;
43363;SDS011;40636;52.424;-1.948;2022-08-03T09:30:38;1.00;;;0.40;;
43363;SDS011;40636;52.424;-1.948;2022-08-03T09:33:08;0.73;;;0.57;;
43363;SDS011;40636;52.424;-1.948;2022-08-03T09:35:44;1.50;;;0.80;;
43363;SDS011;40636;52.424;-1.948;2022-08-03T09:38:23;0.70;;;0.60;;
43363;SDS011;40636;52.424;-1.948;2022-08-03T09:40:54;1.23;;;0.40;;
43363;SDS011;40636;52.424;-1.948;2022-08-03T09:43:26;0.43;;;0.40;;
43363;SDS011;40636;52.424;-1.948;2022-08-03T09:46:01;0.30;;;0.30;;
43363;SDS011;40636;52.424;-1.948;2022-08-03T09:48:29;1.27;;;0.60;;
43363;SDS011;40636;52.424;-1.948;2022-08-03T09:50:58;0.38;;;0.30;;
43363;SDS011;40636;52.424;-1.948;2022-08-03T09:53:44;0.40;;;0.40;;
43363;SDS011;40636;52.424;-1.948;2022-08-03T09:56:39;0.40;;;0.40;;
43363;SDS011;40636;52.424;-1.948;2022-08-03T09:59:12;0.50;;;0.50;;
43363;SDS011;40636;52.424;-1.948;2022-08-03T10:01:52;0.40;;;0.40;;
43363;SDS011;40636;52.424;-1.948;2022-08-03T10:04:21;2.22;;;0.50;;
43363;SDS011;40636;52.424;-1.948;2022-08-03T10:07:10;1.00;;;0.40;;
43363;SDS011;40636;52.424;-1.948;2022-08-03T10:09:38;3.03;;;0.45;;
43363;SDS011;40636;52.424;-1.948;2022-08-03T10:12:49;1.00;;;0.50;;
43363;SDS011;40636;52.424;-1.948;2022-08-03T10:15:18;0.70;;;0.43;;
43363;SDS011;40636;52.424;-1.948;2022-08-03T10:18:06;1.85;;;0.68;;
43363;SDS011;40636;52.424;-1.948;2022-08-03T10:20:35;0.30;;;0.30;;
43363;SDS011;40636;52.424;-1.948;2022-08-03T10:23:06;0.52;;;0.50;;
43363;SDS011;40636;52.424;-1.948;2022-08-03T10:25:35;0.80;;;0.50;;
43363;SDS011;40636;52.424;-1.948;2022-08-03T10:28:04;0.45;;;0.45;;
43363;SDS011;40636;52.424;-1.948;2022-08-03T10:30:33;0.93;;;0.55;;
43363;SDS011;40636;52.424;-1.948;2022-08-03T10:33:04;0.98;;;0.40;;
43363;SDS011;40636;52.424;-1.948;2022-08-03T10:35:55;0.40;;;0.40;;
43363;SDS011;40636;52.424;-1.948;2022-08-03T10:38:25;0.50;;;0.50;;
43363;SDS011;40636;52.424;-1.948;2022-08-03T10:40:58;1.50;;;0.70;;
43363;SDS011;40636;52.424;-1.948;2022-08-03T10:43:39;0.60;;;0.60;;
43363;SDS011;40636;52.424;-1.948;2022-08-03T10:46:14;2.08;;;0.82;;
43363;SDS011;40636;52.424;-1.948;2022-08-03T10:48:46;0.60;;;0.60;;
43363;SDS011;40636;52.424;-1.948;2022-08-03T10:51:15;0.90;;;0.80;;
43363;SDS011;40636;52.424;-1.948;2022-08-03T10:53:43;4.30;;;0.90;;
43363;SDS011;40636;52.424;-1.948;2022-08-03T11:02:13;0.38;;;0.38;;
43363;SDS011;40636;52.424;-1.948;2022-08-03T11:04:41;3.88;;;0.70;;
43363;SDS011;40636;52.424;-1.948;2022-08-03T11:07:23;0.55;;;0.55;;
43363;SDS011;40636;52.424;-1.948;2022-08-03T11:09:52;1.10;;;0.70;;
43363;SDS011;40636;52.424;-1.948;2022-08-03T11:12:28;0.80;;;0.80;;
43363;SDS011;40636;52.424;-1.948;2022-08-03T11:17:31;2.08;;;0.93;;
43363;SDS011;40636;52.424;-1.948;2022-08-03T11:20:42;1.90;;;0.90;;
43363;SDS011;40636;52.424;-1.948;2022-08-03T11:23:11;4.15;;;1.30;;
43363;SDS011;40636;52.424;-1.948;2022-08-03T11:28:45;3.17;;;1.20;;
43363;SDS011;40636;52.424;-1.948;2022-08-03T11:34:11;1.48;;;0.73;;
43363;SDS011;40636;52.424;-1.948;2022-08-03T11:39:48;2.75;;;1.00;;
43363;SDS011;40636;52.424;-1.948;2022-08-03T11:44:49;1.33;;;1.05;;
43363;SDS011;40636;52.424;-1.948;2022-08-03T11:47:21;2.55;;;1.40;;
43363;SDS011;40636;52.424;-1.948;2022-08-03T11:49:50;2.60;;;1.15;;
43363;SDS011;40636;52.424;-1.948;2022-08-03T11:52:21;1.15;;;0.80;;
43363;SDS011;40636;52.424;-1.948;2022-08-03T11:54:54;3.25;;;1.20;;
43363;SDS011;40636;52.424;-1.948;2022-08-03T11:57:31;1.00;;;0.90;;
43363;SDS011;40636;52.424;-1.948;2022-08-03T12:00:21;2.63;;;1.00;;
43363;SDS011;40636;52.424;-1.948;2022-08-03T12:02:57;1.60;;;1.20;;
43363;SDS011;40636;52.424;-1.948;2022-08-03T12:08:39;2.90;;;1.05;;
43363;SDS011;40636;52.424;-1.948;2022-08-03T12:11:07;1.70;;;1.40;;
43363;SDS011;40636;52.424;-1.948;2022-08-03T12:13:37;1.88;;;1.20;;
43363;SDS011;40636;52.424;-1.948;2022-08-03T12:16:35;1.77;;;0.95;;
43363;SDS011;40636;52.424;-1.948;2022-08-03T12:19:04;3.03;;;0.98;;
43363;SDS011;40636;52.424;-1.948;2022-08-03T12:21:34;2.05;;;1.10;;
43363;SDS011;40636;52.424;-1.948;2022-08-03T12:24:22;1.10;;;1.00;;
43363;SDS011;40636;52.424;-1.948;2022-08-03T12:26:49;2.80;;;1.20;;
43363;SDS011;40636;52.424;-1.948;2022-08-03T12:29:24;1.92;;;1.38;;
43363;SDS011;40636;52.424;-1.948;2022-08-03T12:31:53;2.85;;;1.30;;
43363;SDS011;40636;52.424;-1.948;2022-08-03T12:34:21;1.83;;;1.17;;
43363;SDS011;40636;52.424;-1.948;2022-08-03T12:36:49;4.35;;;1.38;;
43363;SDS011;40636;52.424;-1.948;2022-08-03T12:39:21;1.75;;;1.00;;
43363;SDS011;40636;52.424;-1.948;2022-08-03T12:41:54;2.10;;;1.30;;
43363;SDS011;40636;52.424;-1.948;2022-08-03T12:44:29;1.58;;;0.90;;
43363;SDS011;40636;52.424;-1.948;2022-08-03T12:46:57;1.30;;;1.10;;
43363;SDS011;40636;52.424;-1.948;2022-08-03T12:49:25;2.33;;;1.25;;
43363;SDS011;40636;52.424;-1.948;2022-08-03T12:54:32;2.28;;;1.13;;
43363;SDS011;40636;52.424;-1.948;2022-08-03T12:57:05;2.90;;;1.38;;
43363;SDS011;40636;52.424;-1.948;2022-08-03T12:59:42;3.47;;;1.10;;
43363;SDS011;40636;52.424;-1.948;2022-08-03T13:02:23;5.55;;;1.10;;
43363;SDS011;40636;52.424;-1.948;2022-08-03T13:04:52;1.25;;;1.00;;
43363;SDS011;40636;52.424;-1.948;2022-08-03T13:07:20;2.60;;;1.10;;
43363;SDS011;40636;52.424;-1.948;2022-08-03T13:09:49;1.75;;;1.08;;
43363;SDS011;40636;52.424;-1.948;2022-08-03T13:12:21;4.13;;;0.85;;
43363;SDS011;40636;52.424;-1.948;2022-08-03T13:14:54;1.50;;;1.15;;
43363;SDS011;40636;52.424;-1.948;2022-08-03T13:17:22;1.58;;;0.90;;
43363;SDS011;40636;52.424;-1.948;2022-08-03T13:19:50;2.35;;;1.25;;
43363;SDS011;40636;52.424;-1.948;2022-08-03T13:22:24;1.73;;;1.00;;
43363;SDS011;40636;52.424;-1.948;2022-08-03T13:24:56;3.63;;;1.27;;
43363;SDS011;40636;52.424;-1.948;2022-08-03T13:27:23;2.45;;;1.15;;
43363;SDS011;40636;52.424;-1.948;2022-08-03T13:30:11;3.58;;;1.00;;
43363;SDS011;40636;52.424;-1.948;2022-08-03T13:32:38;1.70;;;1.20;;
43363;SDS011;40636;52.424;-1.948;2022-08-03T13:35:05;1.20;;;1.10;;
43363;SDS011;40636;52.424;-1.948;2022-08-03T13:37:33;4.32;;;1.60;;
43363;SDS011;40636;52.424;-1.948;2022-08-03T13:40:01;1.58;;;0.98;;
43363;SDS011;40636;52.424;-1.948;2022-08-03T13:42:32;2.20;;;1.27;;
43363;SDS011;40636;52.424;-1.948;2022-08-03T13:45:01;1.13;;;1.00;;
43363;SDS011;40636;52.424;-1.948;2022-08-03T13:47:34;1.77;;;1.00;;
43363;SDS011;40636;52.424;-1.948;2022-08-03T13:50:10;1.42;;;0.98;;
43363;SDS011;40636;52.424;-1.948;2022-08-03T13:52:39;1.73;;;1.25;;
43363;SDS011;40636;52.424;-1.948;2022-08-03T13:55:06;1.58;;;0.82;;
43363;SDS011;40636;52.424;-1.948;2022-08-03T13:57:34;2.05;;;0.90;;
43363;SDS011;40636;52.424;-1.948;2022-08-03T14:00:21;3.55;;;1.63;;
43363;SDS011;40636;52.424;-1.948;2022-08-03T14:02:58;1.80;;;1.20;;
43363;SDS011;40636;52.424;-1.948;2022-08-03T14:05:42;3.33;;;1.30;;
43363;SDS011;40636;52.424;-1.948;2022-08-03T14:08:09;2.83;;;1.00;;
43363;SDS011;40636;52.424;-1.948;2022-08-03T14:10:38;4.32;;;1.00;;
43363;SDS011;40636;52.424;-1.948;2022-08-03T14:13:09;4.15;;;1.10;;
43363;SDS011;40636;52.424;-1.948;2022-08-03T14:15:37;4.18;;;1.35;;
43363;SDS011;40636;52.424;-1.948;2022-08-03T14:18:05;2.50;;;1.10;;
43363;SDS011;40636;52.424;-1.948;2022-08-03T14:20:41;5.20;;;1.35;;
43363;SDS011;40636;52.424;-1.948;2022-08-03T14:23:17;2.03;;;1.08;;
43363;SDS011;40636;52.424;-1.948;2022-08-03T14:25:44;2.40;;;1.20;;
43363;SDS011;40636;52.424;-1.948;2022-08-03T14:28:21;5.70;;;1.60;;
43363;SDS011;40636;52.424;-1.948;2022-08-03T14:30:52;1.40;;;0.90;;
43363;SDS011;40636;52.424;-1.948;2022-08-03T14:33:21;1.48;;;1.00;;
43363;SDS011;40636;52.424;-1.948;2022-08-03T14:35:49;2.70;;;0.90;;
43363;SDS011;40636;52.424;-1.948;2022-08-03T14:38:17;1.45;;;1.20;;
43363;SDS011;40636;52.424;-1.948;2022-08-03T14:40:44;2.35;;;1.10;;
43363;SDS011;40636;52.424;-1.948;2022-08-03T14:43:13;4.60;;;1.40;;
43363;SDS011;40636;52.424;-1.948;2022-08-03T14:45:43;4.55;;;1.73;;
43363;SDS011;40636;52.424;-1.948;2022-08-03T14:48:10;1.67;;;1.08;;
43363;SDS011;40636;52.424;-1.948;2022-08-03T14:50:57;1.50;;;1.17;;
43363;SDS011;40636;52.424;-1.948;2022-08-03T14:53:24;5.88;;;1.35;;
43363;SDS011;40636;52.424;-1.948;2022-08-03T14:55:51;2.20;;;1.35;;
43363;SDS011;40636;52.424;-1.948;2022-08-03T14:58:21;2.03;;;1.35;;
43363;SDS011;40636;52.424;-1.948;2022-08-03T15:00:49;3.72;;;1.40;;
43363;SDS011;40636;52.424;-1.948;2022-08-03T15:03:18;2.38;;;1.52;;
43363;SDS011;40636;52.424;-1.948;2022-08-03T15:05:50;3.28;;;1.40;;
43363;SDS011;40636;52.424;-1.948;2022-08-03T15:08:21;2.25;;;1.35;;
43363;SDS011;40636;52.424;-1.948;2022-08-03T15:10:49;2.60;;;1.30;;
43363;SDS011;40636;52.424;-1.948;2022-08-03T15:13:16;1.50;;;1.40;;
43363;SDS011;40636;52.424;-1.948;2022-08-03T15:15:46;1.30;;;1.20;;
43363;SDS011;40636;52.424;-1.948;2022-08-03T15:18:13;2.40;;;1.58;;
43363;SDS011;40636;52.424;-1.948;2022-08-03T15:20:40;1.88;;;0.98;;
43363;SDS011;40636;52.424;-1.948;2022-08-03T15:23:12;3.00;;;1.40;;
43363;SDS011;40636;52.424;-1.948;2022-08-03T15:25:39;4.30;;;1.52;;
43363;SDS011;40636;52.424;-1.948;2022-08-03T15:28:27;2.88;;;1.30;;
43363;SDS011;40636;52.424;-1.948;2022-08-03T15:30:54;1.88;;;1.10;;
43363;SDS011;40636;52.424;-1.948;2022-08-03T15:33:22;6.97;;;1.55;;
43363;SDS011;40636;52.424;-1.948;2022-08-03T15:35:48;4.80;;;1.38;;
43363;SDS011;40636;52.424;-1.948;2022-08-03T15:38:15;2.63;;;1.00;;
43363;SDS011;40636;52.424;-1.948;2022-08-03T15:40:42;2.90;;;1.10;;
43363;SDS011;40636;52.424;-1.948;2022-08-03T15:43:10;2.95;;;1.17;;
43363;SDS011;40636;52.424;-1.948;2022-08-03T15:45:37;2.28;;;1.40;;
43363;SDS011;40636;52.424;-1.948;2022-08-03T15:48:07;1.30;;;1.00;;